Time;durP1;ratioP1;P1;durP2;ratioP2;P2;SDS_P1;SDS_P2;PMS_P1;PMS_P2;Temp;Humidity;BMP_temperature;BMP_pressure;BME280_temperature;BME280_humidity;BME280_pressure;Samples;Min_cycle;Max_cycle;Signal;HPM_P1;HPM_P2
2024/01/30 00:02:06;;;;;;;;;;;6.50;99.90;;;;;;5024383;28;20282;-62
2024/01/30 00:04:31;;;;;;;;;;;6.40;99.90;;;;;;5025291;28;19929;-62
2024/01/30 00:06:57;;;;;;;;;;;6.40;99.90;;;;;;5025550;28;19920;-62
2024/01/30 00:09:22;;;;;;;;;;;6.40;99.90;;;;;;5025440;28;19921;-62
2024/01/30 00:11:48;;;;;;;;;;;6.40;99.90;;;;;;5024343;28;19919;-62
2024/01/30 00:14:13;;;;;;;;;;;6.40;99.90;;;;;;5024409;28;19963;-62
2024/01/30 00:16:39;;;;;;;;;;;6.40;99.90;;;;;;5024577;28;20373;-62
2024/01/30 00:19:04;;;;;;;;;;;6.40;99.90;;;;;;5040091;28;19913;-62
2024/01/30 00:21:30;;;;;;;;;;;6.40;99.90;;;;;;5024336;28;19920;-62
2024/01/30 00:23:55;;;;;;;;;;;6.40;99.90;;;;;;5016657;28;19966;-62
2024/01/30 00:26:21;;;;;;;;;;;6.30;99.90;;;;;;5022919;28;20011;-62
2024/01/30 00:28:46;;;;;;;;;;;6.30;99.90;;;;;;5022758;28;19965;-62
2024/01/30 00:31:12;;;;;;;;;;;6.30;99.90;;;;;;5022948;28;19917;-61
2024/01/30 00:33:40;;;;;;;;;;;6.30;99.90;;;;;;5023399;28;19917;-62
2024/01/30 00:36:07;;;;;;;;;;;6.30;99.90;;;;;;5024219;28;20345;-61
2024/01/30 00:38:32;;;;;;;;;;;6.30;99.90;;;;;;5024811;28;19920;-62
2024/01/30 00:40:58;;;;;;;;;;;6.30;99.90;;;;;;5024418;28;19913;-62
2024/01/30 00:43:24;;;;;;;;;;;6.30;99.90;;;;;;5024572;28;19958;-62
2024/01/30 00:45:51;;;;;;;;;;;6.30;99.90;;;;;;5024244;28;19920;-62
2024/01/30 00:48:17;;;;;;;;;;;6.30;99.90;;;;;;5024479;28;19909;-62
2024/01/30 00:50:42;;;;;;;;;;;6.30;99.90;;;;;;5023895;28;19965;-62
2024/01/30 00:53:08;;;;;;;;;;;6.30;99.90;;;;;;5024126;28;20400;-62
2024/01/30 00:55:33;;;;;;;;;;;6.20;99.90;;;;;;5024165;28;19913;-62
2024/01/30 00:57:59;;;;;;;;;;;6.30;99.90;;;;;;5024332;28;19917;-62
2024/01/30 01:00:29;;;;;;;;;;;6.20;99.90;;;;;;5024078;28;19921;-62
2024/01/30 01:02:55;;;;;;;;;;;6.20;99.90;;;;;;5023593;28;20754;-62
2024/01/30 01:05:20;;;;;;;;;;;6.20;99.90;;;;;;5024376;28;20480;-62
2024/01/30 01:07:47;;;;;;;;;;;6.20;99.90;;;;;;5023925;28;20373;-62
2024/01/30 01:10:13;;;;;;;;;;;6.20;99.90;;;;;;5024257;28;20596;-62
2024/01/30 01:12:39;;;;;;;;;;;6.20;99.90;;;;;;5023683;28;19921;-62
2024/01/30 01:15:05;;;;;;;;;;;6.20;99.90;;;;;;5023061;28;19913;-62
2024/01/30 01:17:31;;;;;;;;;;;6.20;99.90;;;;;;5006131;28;19944;-62
2024/01/30 01:19:57;;;;;;;;;;;6.20;99.90;;;;;;5023740;28;20358;-62
2024/01/30 01:22:22;;;;;;;;;;;6.20;99.90;;;;;;5023617;28;19917;-62
2024/01/30 01:24:48;;;;;;;;;;;6.20;99.90;;;;;;5023717;28;19913;-62
2024/01/30 01:27:13;;;;;;;;;;;6.20;99.90;;;;;;5021331;28;19913;-62
2024/01/30 01:29:39;;;;;;;;;;;6.20;99.90;;;;;;5023636;28;19944;-62
2024/01/30 01:32:05;;;;;;;;;;;6.10;99.90;;;;;;5023265;28;20016;-62
2024/01/30 01:34:31;;;;;;;;;;;6.10;99.90;;;;;;5024022;28;19913;-62
2024/01/30 01:36:56;;;;;;;;;;;6.10;99.90;;;;;;5023631;28;19925;-62
2024/01/30 01:39:23;;;;;;;;;;;6.10;99.90;;;;;;5023871;28;19951;-62
2024/01/30 01:41:49;;;;;;;;;;;6.10;99.90;;;;;;5023317;28;19966;-62
2024/01/30 01:44:14;;;;;;;;;;;6.10;99.90;;;;;;5023883;28;19913;-62
2024/01/30 01:46:40;;;;;;;;;;;6.10;99.90;;;;;;5023136;28;19913;-62
2024/01/30 01:49:07;;;;;;;;;;;6.10;99.90;;;;;;5023798;28;19917;-62
2024/01/30 01:51:33;;;;;;;;;;;6.10;99.90;;;;;;5031368;28;19913;-62
2024/01/30 01:54:01;;;;;;;;;;;6.10;99.90;;;;;;5015756;28;19913;-62
2024/01/30 01:56:26;;;;;;;;;;;6.10;99.90;;;;;;5023687;28;20478;-62
2024/01/30 01:58:54;;;;;;;;;;;6.10;99.90;;;;;;5038544;28;19948;-62
2024/01/30 02:01:20;;;;;;;;;;;6.00;99.90;;;;;;5023172;28;19920;-62
2024/01/30 02:03:46;;;;;;;;;;;6.10;99.90;;;;;;5021554;28;19913;-62
2024/01/30 02:06:12;;;;;;;;;;;6.00;99.90;;;;;;5023471;28;19917;-62
2024/01/30 02:08:37;;;;;;;;;;;6.00;99.90;;;;;;5023362;28;20547;-62
2024/01/30 02:11:03;;;;;;;;;;;6.00;99.90;;;;;;5023113;28;19913;-62
2024/01/30 02:13:29;;;;;;;;;;;6.00;99.90;;;;;;5023292;28;19952;-62
2024/01/30 02:15:54;;;;;;;;;;;6.00;99.90;;;;;;5023025;28;19913;-62
2024/01/30 02:18:21;;;;;;;;;;;6.00;99.90;;;;;;5023187;28;19929;-62
2024/01/30 02:20:47;;;;;;;;;;;6.00;99.90;;;;;;5037627;28;19909;-62
2024/01/30 02:23:14;;;;;;;;;;;6.00;99.90;;;;;;5022926;28;20009;-62
2024/01/30 02:25:45;;;;;;;;;;;6.00;99.90;;;;;;5022576;28;20327;-62
2024/01/30 02:28:12;;;;;;;;;;;6.00;99.90;;;;;;5022516;28;19910;-62
2024/01/30 02:30:38;;;;;;;;;;;6.00;99.90;;;;;;5022522;28;19981;-62
2024/01/30 02:33:04;;;;;;;;;;;6.00;99.90;;;;;;5022824;28;19913;-62
2024/01/30 02:35:29;;;;;;;;;;;6.00;99.90;;;;;;5022798;28;20325;-62
2024/01/30 02:37:55;;;;;;;;;;;6.00;99.90;;;;;;5022870;28;19917;-62
2024/01/30 02:40:20;;;;;;;;;;;5.90;99.90;;;;;;5022770;28;19913;-62
2024/01/30 02:42:46;;;;;;;;;;;5.90;99.90;;;;;;5020853;28;19916;-62
2024/01/30 02:45:12;;;;;;;;;;;5.90;99.90;;;;;;5022781;28;19911;-62
2024/01/30 02:47:38;;;;;;;;;;;5.90;99.90;;;;;;5022668;28;19917;-62
2024/01/30 02:50:03;;;;;;;;;;;5.90;99.90;;;;;;5022721;28;19924;-62
2024/01/30 02:52:29;;;;;;;;;;;5.90;99.90;;;;;;5022595;28;19959;-62
2024/01/30 02:54:54;;;;;;;;;;;5.90;99.90;;;;;;5022695;28;19944;-62
2024/01/30 02:57:20;;;;;;;;;;;5.90;99.90;;;;;;5022657;28;20003;-61
2024/01/30 02:59:45;;;;;;;;;;;5.90;99.90;;;;;;5022514;28;20370;-61
2024/01/30 03:02:11;;;;;;;;;;;5.90;99.90;;;;;;5022171;28;19909;-62
2024/01/30 03:04:36;;;;;;;;;;;5.90;99.90;;;;;;5022719;28;19909;-62
2024/01/30 03:07:02;;;;;;;;;;;5.90;99.90;;;;;;5022582;28;20406;-62
2024/01/30 03:09:28;;;;;;;;;;;5.90;99.90;;;;;;5022607;28;20358;-62
2024/01/30 03:11:54;;;;;;;;;;;5.90;99.90;;;;;;5021907;28;19913;-62
2024/01/30 03:14:20;;;;;;;;;;;5.90;99.90;;;;;;5022589;28;19913;-62
2024/01/30 03:16:45;;;;;;;;;;;5.80;99.90;;;;;;5021895;28;20000;-62
2024/01/30 03:19:11;;;;;;;;;;;5.80;99.90;;;;;;5022489;28;19909;-62
2024/01/30 03:21:36;;;;;;;;;;;5.80;99.90;;;;;;5021773;28;19917;-62
2024/01/30 03:24:02;;;;;;;;;;;5.90;99.90;;;;;;5022311;28;19913;-62
2024/01/30 03:26:27;;;;;;;;;;;5.80;99.90;;;;;;5019986;28;19998;-61
2024/01/30 03:28:53;;;;;;;;;;;5.80;99.90;;;;;;5036100;28;19932;-62
2024/01/30 03:31:18;;;;;;;;;;;5.80;99.90;;;;;;5021958;28;19928;-62
2024/01/30 03:33:44;;;;;;;;;;;5.80;99.90;;;;;;5021991;28;19997;-62
2024/01/30 03:36:10;;;;;;;;;;;5.80;99.90;;;;;;5037100;28;19925;-62
2024/01/30 03:38:36;;;;;;;;;;;5.80;99.90;;;;;;5024036;28;19922;-62
2024/01/30 03:41:01;;;;;;;;;;;5.80;99.90;;;;;;5025411;28;19958;-62
2024/01/30 03:43:27;;;;;;;;;;;5.80;99.90;;;;;;5025240;28;20005;-62
2024/01/30 03:45:52;;;;;;;;;;;5.80;99.90;;;;;;5025020;28;20295;-62
2024/01/30 03:48:18;;;;;;;;;;;5.80;99.90;;;;;;5025846;28;20000;-62
2024/01/30 03:50:44;;;;;;;;;;;5.80;99.90;;;;;;5032791;28;19962;-61
2024/01/30 03:53:09;;;;;;;;;;;5.80;99.90;;;;;;5024654;28;19992;-62
2024/01/30 03:55:35;;;;;;;;;;;5.80;99.90;;;;;;5002698;28;19921;-62
2024/01/30 03:58:01;;;;;;;;;;;5.80;99.90;;;;;;5020369;28;19962;-62
2024/01/30 04:00:26;;;;;;;;;;;5.80;99.90;;;;;;5020102;28;19974;-62
2024/01/30 04:02:52;;;;;;;;;;;5.80;99.90;;;;;;5023287;28;19917;-62
2024/01/30 04:05:17;;;;;;;;;;;5.80;99.90;;;;;;5025218;28;19937;-62
2024/01/30 04:07:43;;;;;;;;;;;5.80;99.90;;;;;;5024788;28;19913;-62
2024/01/30 04:10:09;;;;;;;;;;;5.80;99.90;;;;;;5024999;28;19935;-62
2024/01/30 04:12:35;;;;;;;;;;;5.80;99.90;;;;;;5006738;28;19909;-62
2024/01/30 04:15:00;;;;;;;;;;;5.80;99.90;;;;;;5024942;28;20246;-62
2024/01/30 04:17:26;;;;;;;;;;;5.80;99.90;;;;;;5024787;28;19923;-61
2024/01/30 04:19:51;;;;;;;;;;;5.80;99.90;;;;;;5024673;28;19909;-61
2024/01/30 04:22:17;;;;;;;;;;;5.80;99.90;;;;;;5024555;28;19917;-62
2024/01/30 04:24:42;;;;;;;;;;;5.80;99.90;;;;;;5024646;28;20521;-62
2024/01/30 04:27:08;;;;;;;;;;;5.70;99.90;;;;;;5010659;28;19913;-62
2024/01/30 04:29:34;;;;;;;;;;;5.70;99.90;;;;;;5039958;28;19986;-62
2024/01/30 04:31:59;;;;;;;;;;;5.70;99.90;;;;;;5038935;28;19931;-63
2024/01/30 04:34:25;;;;;;;;;;;5.70;99.90;;;;;;5024266;28;19917;-62
2024/01/30 04:36:50;;;;;;;;;;;5.70;99.90;;;;;;5006346;28;19965;-62
2024/01/30 04:39:16;;;;;;;;;;;5.70;99.90;;;;;;5024796;28;19981;-61
2024/01/30 04:41:41;;;;;;;;;;;5.80;99.90;;;;;;5005616;28;20347;-62
2024/01/30 04:44:07;;;;;;;;;;;5.70;99.90;;;;;;5024470;28;20015;-62
2024/01/30 04:46:34;;;;;;;;;;;5.70;99.90;;;;;;5023671;28;19913;-62
2024/01/30 04:48:59;;;;;;;;;;;5.70;99.90;;;;;;5022421;28;19913;-62
2024/01/30 04:51:25;;;;;;;;;;;5.70;99.90;;;;;;5023634;28;19917;-62
2024/01/30 04:53:50;;;;;;;;;;;5.70;99.90;;;;;;5024132;28;19913;-62
2024/01/30 04:56:16;;;;;;;;;;;5.70;99.90;;;;;;5039347;27;19913;-62
2024/01/30 04:58:41;;;;;;;;;;;5.70;99.90;;;;;;5024132;28;20357;-62
2024/01/30 05:01:07;;;;;;;;;;;5.70;99.90;;;;;;5023998;28;19928;-62
2024/01/30 05:03:33;;;;;;;;;;;5.70;99.90;;;;;;5024209;28;20009;-62
2024/01/30 05:05:59;;;;;;;;;;;5.70;99.90;;;;;;5024043;28;19913;-62
2024/01/30 05:08:24;;;;;;;;;;;5.70;99.90;;;;;;5024461;28;19933;-62
2024/01/30 05:10:50;;;;;;;;;;;5.70;99.90;;;;;;5039029;28;19973;-62
2024/01/30 05:13:15;;;;;;;;;;;5.70;99.90;;;;;;5024176;28;20000;-62
2024/01/30 05:15:41;;;;;;;;;;;5.70;99.90;;;;;;5023777;28;19914;-62
2024/01/30 05:18:06;;;;;;;;;;;5.70;99.90;;;;;;5023803;28;19955;-62
2024/01/30 05:20:32;;;;;;;;;;;5.70;99.90;;;;;;5017078;28;19913;-62
2024/01/30 05:22:57;;;;;;;;;;;5.70;99.90;;;;;;5023535;28;19917;-62
2024/01/30 05:25:23;;;;;;;;;;;5.70;99.90;;;;;;5024160;28;19984;-61
2024/01/30 05:27:49;;;;;;;;;;;5.70;99.90;;;;;;5020838;28;19913;-62
2024/01/30 05:30:15;;;;;;;;;;;5.70;99.90;;;;;;5023710;28;19918;-62
2024/01/30 05:32:40;;;;;;;;;;;5.70;99.90;;;;;;5023755;28;19913;-61
2024/01/30 05:35:07;;;;;;;;;;;5.70;99.90;;;;;;5038995;27;19913;-61
2024/01/30 05:37:33;;;;;;;;;;;5.70;99.90;;;;;;5023896;28;19921;-62
2024/01/30 05:39:59;;;;;;;;;;;5.70;99.90;;;;;;5023573;28;19927;-61
2024/01/30 05:42:24;;;;;;;;;;;5.70;99.90;;;;;;5023511;28;19916;-62
2024/01/30 05:44:50;;;;;;;;;;;5.70;99.90;;;;;;5005438;28;19919;-62
2024/01/30 05:47:16;;;;;;;;;;;5.60;99.90;;;;;;5023224;28;19978;-62
2024/01/30 05:49:41;;;;;;;;;;;5.70;99.90;;;;;;5023167;28;19913;-61
2024/01/30 05:52:07;;;;;;;;;;;5.70;99.90;;;;;;5023173;28;20705;-62
2024/01/30 05:54:33;;;;;;;;;;;5.60;99.90;;;;;;5023685;28;19913;-62
2024/01/30 05:56:58;;;;;;;;;;;5.60;99.90;;;;;;5023254;28;20477;-62
2024/01/30 05:59:24;;;;;;;;;;;5.60;99.90;;;;;;5027701;28;19913;-61
2024/01/30 06:01:49;;;;;;;;;;;5.60;99.90;;;;;;5022123;28;19954;-61
2024/01/30 06:04:15;;;;;;;;;;;5.60;99.90;;;;;;5022342;28;19953;-62
2024/01/30 06:06:41;;;;;;;;;;;5.60;99.90;;;;;;5022521;28;20369;-62
2024/01/30 06:09:08;;;;;;;;;;;5.60;99.90;;;;;;5023470;28;19917;-62
2024/01/30 06:11:35;;;;;;;;;;;5.60;99.90;;;;;;5023101;28;20274;-62
2024/01/30 06:14:00;;;;;;;;;;;5.60;99.90;;;;;;5023010;28;19921;-62
2024/01/30 06:16:29;;;;;;;;;;;5.60;99.90;;;;;;5023017;28;19914;-62
2024/01/30 06:18:57;;;;;;;;;;;5.60;99.90;;;;;;5022961;28;19909;-62
2024/01/30 06:21:23;;;;;;;;;;;5.60;99.90;;;;;;5004639;28;19913;-62
2024/01/30 06:23:49;;;;;;;;;;;5.60;99.90;;;;;;5005000;28;19966;-62
2024/01/30 06:26:14;;;;;;;;;;;5.60;99.90;;;;;;5023159;28;19984;-61
2024/01/30 06:28:40;;;;;;;;;;;5.60;99.90;;;;;;5022881;28;19913;-62
2024/01/30 06:31:05;;;;;;;;;;;5.60;99.90;;;;;;5022636;28;20007;-62
2024/01/30 06:33:31;;;;;;;;;;;5.60;99.90;;;;;;5022942;28;19957;-62
2024/01/30 06:35:56;;;;;;;;;;;5.60;99.90;;;;;;5022845;28;19917;-62
2024/01/30 06:38:22;;;;;;;;;;;5.60;99.90;;;;;;5022436;28;19967;-62
2024/01/30 06:40:47;;;;;;;;;;;5.70;99.90;;;;;;5022529;28;19962;-62
2024/01/30 06:43:12;;;;;;;;;;;5.70;99.90;;;;;;5022848;28;19925;-62
2024/01/30 06:45:38;;;;;;;;;;;5.60;99.90;;;;;;5022667;28;20619;-62
2024/01/30 06:48:04;;;;;;;;;;;5.60;99.90;;;;;;5022800;28;19913;-62
2024/01/30 06:50:29;;;;;;;;;;;5.60;99.90;;;;;;5022575;28;19909;-62
2024/01/30 06:52:55;;;;;;;;;;;5.60;99.90;;;;;;5021963;28;19920;-62
2024/01/30 06:55:20;;;;;;;;;;;5.60;99.90;;;;;;5022342;28;19935;-61
2024/01/30 06:57:46;;;;;;;;;;;5.60;99.90;;;;;;5021726;28;19921;-62
2024/01/30 07:00:12;;;;;;;;;;;5.70;99.90;;;;;;5020915;28;19962;-62
2024/01/30 07:02:37;;;;;;;;;;;5.70;99.90;;;;;;5021000;28;19955;-62
2024/01/30 07:05:03;;;;;;;;;;;5.70;99.90;;;;;;5022024;28;19913;-62
2024/01/30 07:07:28;;;;;;;;;;;5.70;99.90;;;;;;5022851;28;19980;-62
2024/01/30 07:09:56;;;;;;;;;;;5.70;99.90;;;;;;5022273;28;19909;-62
2024/01/30 07:12:22;;;;;;;;;;;5.70;99.90;;;;;;5037512;27;20401;-62
2024/01/30 07:14:48;;;;;;;;;;;5.70;99.90;;;;;;5025550;28;20349;-62
2024/01/30 07:17:13;;;;;;;;;;;5.70;99.90;;;;;;5025805;28;19952;-62
2024/01/30 07:19:39;;;;;;;;;;;5.70;99.90;;;;;;5025703;28;20430;-62
2024/01/30 07:22:04;;;;;;;;;;;5.70;99.90;;;;;;5025730;28;19996;-62
2024/01/30 07:24:30;;;;;;;;;;;5.70;99.90;;;;;;5041103;28;19913;-61
2024/01/30 07:26:55;;;;;;;;;;;5.70;99.90;;;;;;5021927;28;19914;-61
2024/01/30 07:29:22;;;;;;;;;;;5.70;99.90;;;;;;5025710;28;19928;-62
2024/01/30 07:31:47;;;;;;;;;;;5.70;99.90;;;;;;5024895;28;19927;-62
2024/01/30 07:34:13;;;;;;;;;;;5.70;99.90;;;;;;5025688;28;19929;-62
2024/01/30 07:36:38;;;;;;;;;;;5.70;99.90;;;;;;5025348;28;20370;-62
2024/01/30 07:39:04;;;;;;;;;;;5.70;99.90;;;;;;5025628;28;19982;-61
2024/01/30 07:41:29;;;;;;;;;;;5.80;99.90;;;;;;5025240;28;19976;-61
2024/01/30 07:43:55;;;;;;;;;;;5.70;99.90;;;;;;5025246;28;19935;-62
2024/01/30 07:46:20;;;;;;;;;;;5.70;99.90;;;;;;5025349;28;20397;-62
2024/01/30 07:48:46;;;;;;;;;;;5.70;99.90;;;;;;5025061;28;19909;-61
2024/01/30 07:51:11;;;;;;;;;;;5.70;99.90;;;;;;5025043;28;19910;-62
2024/01/30 07:53:37;;;;;;;;;;;5.80;99.90;;;;;;5024968;28;20021;-62
2024/01/30 07:56:02;;;;;;;;;;;5.80;99.90;;;;;;5024055;28;20616;-62
2024/01/30 07:58:28;;;;;;;;;;;5.80;99.90;;;;;;5025242;28;20426;-62
2024/01/30 08:00:53;;;;;;;;;;;5.80;99.90;;;;;;5024851;28;19913;-62
2024/01/30 08:03:19;;;;;;;;;;;5.80;99.90;;;;;;5025490;28;19926;-62
2024/01/30 08:05:45;;;;;;;;;;;5.80;99.90;;;;;;5033292;28;19953;-62
2024/01/30 08:08:10;;;;;;;;;;;5.90;99.90;;;;;;5025232;28;20294;-62
2024/01/30 08:10:36;;;;;;;;;;;5.90;99.90;;;;;;5025113;28;19913;-62
2024/01/30 08:13:01;;;;;;;;;;;5.90;99.90;;;;;;5024515;28;19913;-62
2024/01/30 08:15:27;;;;;;;;;;;5.90;99.90;;;;;;5024723;28;19913;-62
2024/01/30 08:17:57;;;;;;;;;;;5.90;99.90;;;;;;5025034;28;20559;-62
2024/01/30 08:20:23;;;;;;;;;;;5.90;99.90;;;;;;5024818;28;19920;-62
2024/01/30 08:22:49;;;;;;;;;;;6.00;99.90;;;;;;5024231;28;19924;-62
2024/01/30 08:25:14;;;;;;;;;;;6.00;99.90;;;;;;5024483;28;19909;-62
2024/01/30 08:27:40;;;;;;;;;;;6.00;99.90;;;;;;5006658;28;19920;-61
2024/01/30 08:30:06;;;;;;;;;;;6.00;99.90;;;;;;5024511;28;19921;-62
2024/01/30 08:32:32;;;;;;;;;;;6.00;99.90;;;;;;5006979;28;20004;-62
2024/01/30 08:34:58;;;;;;;;;;;6.00;99.90;;;;;;5024251;28;20054;-62
2024/01/30 08:37:23;;;;;;;;;;;6.10;99.90;;;;;;5024462;28;20513;-62
2024/01/30 08:39:49;;;;;;;;;;;6.10;99.90;;;;;;5039361;28;19920;-62
2024/01/30 08:42:14;;;;;;;;;;;6.10;99.90;;;;;;5022677;28;19909;-62
2024/01/30 08:44:40;;;;;;;;;;;6.10;99.90;;;;;;5024393;28;19909;-62
2024/01/30 08:47:05;;;;;;;;;;;6.10;99.90;;;;;;5024390;28;19921;-62
2024/01/30 08:49:31;;;;;;;;;;;6.20;99.90;;;;;;5024673;28;20400;-62
2024/01/30 08:51:57;;;;;;;;;;;6.20;99.90;;;;;;5023830;28;19910;-62
2024/01/30 08:54:23;;;;;;;;;;;6.20;99.90;;;;;;5024440;28;19935;-62
2024/01/30 08:56:48;;;;;;;;;;;6.20;99.90;;;;;;5023978;28;19920;-62
2024/01/30 08:59:14;;;;;;;;;;;6.20;99.90;;;;;;5024338;28;19944;-62
2024/01/30 09:01:39;;;;;;;;;;;6.20;99.90;;;;;;5023670;28;19933;-61
2024/01/30 09:04:05;;;;;;;;;;;6.20;99.90;;;;;;5024489;28;20286;-61
2024/01/30 09:06:31;;;;;;;;;;;6.30;99.90;;;;;;5024487;28;19954;-61
2024/01/30 09:08:57;;;;;;;;;;;6.30;99.90;;;;;;5039115;28;20461;-61
2024/01/30 09:11:23;;;;;;;;;;;6.30;99.90;;;;;;5023960;28;20292;-62
2024/01/30 09:13:48;;;;;;;;;;;6.30;99.90;;;;;;5023989;28;19957;-62
2024/01/30 09:16:15;;;;;;;;;;;6.40;99.90;;;;;;5006038;28;19913;-62
2024/01/30 09:18:41;;;;;;;;;;;6.40;99.90;;;;;;5024067;28;19962;-62
2024/01/30 09:21:07;;;;;;;;;;;6.40;99.90;;;;;;5023533;28;19957;-61
2024/01/30 09:23:33;;;;;;;;;;;6.50;99.90;;;;;;5024011;28;20271;-62
2024/01/30 09:25:59;;;;;;;;;;;6.50;99.90;;;;;;5005997;28;19917;-61
2024/01/30 09:28:24;;;;;;;;;;;6.50;99.90;;;;;;5023806;28;19945;-62
2024/01/30 09:30:50;;;;;;;;;;;6.60;99.90;;;;;;5023425;28;19909;-62
2024/01/30 09:33:15;;;;;;;;;;;6.60;99.90;;;;;;5023774;28;19957;-62
2024/01/30 09:35:40;;;;;;;;;;;6.60;99.90;;;;;;5022654;28;20255;-62
2024/01/30 09:38:06;;;;;;;;;;;6.60;99.90;;;;;;5023868;28;19917;-62
2024/01/30 09:40:32;;;;;;;;;;;6.70;99.90;;;;;;5023606;28;19928;-62
2024/01/30 09:42:59;;;;;;;;;;;6.70;99.90;;;;;;5023308;28;19924;-62
2024/01/30 09:45:25;;;;;;;;;;;6.70;99.90;;;;;;5023699;28;19920;-62
2024/01/30 09:47:51;;;;;;;;;;;6.80;99.90;;;;;;5023451;28;19921;-62
2024/01/30 09:50:17;;;;;;;;;;;6.80;99.90;;;;;;5023114;28;19909;-62
2024/01/30 09:52:43;;;;;;;;;;;6.80;99.90;;;;;;5023512;28;19920;-62
2024/01/30 09:55:09;;;;;;;;;;;6.90;99.90;;;;;;5023640;28;19965;-62
2024/01/30 09:57:35;;;;;;;;;;;6.90;99.90;;;;;;5023596;28;19917;-62
2024/01/30 10:00:01;;;;;;;;;;;6.90;99.90;;;;;;5025548;28;19921;-62
2024/01/30 10:02:27;;;;;;;;;;;7.00;99.90;;;;;;5023316;28;19988;-62
2024/01/30 10:04:52;;;;;;;;;;;7.00;99.90;;;;;;5022709;28;20053;-62
2024/01/30 10:07:18;;;;;;;;;;;7.10;99.90;;;;;;5023531;28;19918;-62
2024/01/30 10:09:44;;;;;;;;;;;7.10;99.90;;;;;;5023241;28;19917;-61
2024/01/30 10:12:10;;;;;;;;;;;7.20;99.90;;;;;;5023189;28;19913;-62
2024/01/30 10:14:39;;;;;;;;;;;7.20;99.90;;;;;;5023248;28;19981;-62
2024/01/30 10:17:05;;;;;;;;;;;7.20;99.90;;;;;;5037753;28;19921;-62
2024/01/30 10:19:31;;;;;;;;;;;7.20;99.90;;;;;;5023166;28;20785;-62
2024/01/30 10:21:56;;;;;;;;;;;7.30;99.90;;;;;;5022395;28;19913;-62
2024/01/30 10:24:26;;;;;;;;;;;7.30;99.90;;;;;;5023057;28;20610;-62
2024/01/30 10:26:51;;;;;;;;;;;7.40;99.90;;;;;;5018975;28;19970;-62
2024/01/30 10:29:17;;;;;;;;;;;7.50;99.90;;;;;;5022970;28;19917;-62
2024/01/30 10:31:42;;;;;;;;;;;7.50;99.90;;;;;;5022303;28;19920;-62
2024/01/30 10:34:08;;;;;;;;;;;7.50;99.90;;;;;;5023196;28;19917;-62
2024/01/30 10:36:38;;;;;;;;;;;7.60;99.90;;;;;;5037900;28;20514;-61
2024/01/30 10:39:06;;;;;;;;;;;7.60;99.90;;;;;;5022668;28;20588;-61
2024/01/30 10:41:35;;;;;;;;;;;7.70;99.90;;;;;;5022822;28;19971;-62
2024/01/30 10:44:08;;;;;;;;;;;7.70;99.90;;;;;;5022471;28;19917;-61
2024/01/30 10:46:35;;;;;;;;;;;7.80;99.90;;;;;;5023426;28;20624;-62
2024/01/30 10:49:01;;;;;;;;;;;7.80;99.90;;;;;;5026266;28;20293;-62
2024/01/30 10:51:27;;;;;;;;;;;7.90;99.90;;;;;;5025710;28;19913;-62
2024/01/30 10:53:53;;;;;;;;;;;8.00;99.90;;;;;;5025972;28;19914;-62
2024/01/30 10:56:22;;;;;;;;;;;8.10;99.90;;;;;;5026278;28;19913;-62
2024/01/30 10:58:55;;;;;;;;;;;8.10;99.90;;;;;;5025887;28;19921;-62
2024/01/30 11:01:22;;;;;;;;;;;8.20;99.90;;;;;;5025753;28;20258;-61
2024/01/30 11:03:51;;;;;;;;;;;8.20;99.90;;;;;;5025987;28;19962;-62
2024/01/30 11:06:20;;;;;;;;;;;8.30;99.90;;;;;;5026272;28;19913;-62
2024/01/30 11:08:45;;;;;;;;;;;8.40;99.90;;;;;;5025898;28;19909;-61
2024/01/30 11:11:11;;;;;;;;;;;8.40;99.90;;;;;;5026023;28;19913;-61
2024/01/30 11:13:36;;;;;;;;;;;8.50;99.90;;;;;;5026084;28;20299;-62
2024/01/30 11:16:02;;;;;;;;;;;8.50;99.90;;;;;;5025659;28;19986;-62
2024/01/30 11:18:31;;;;;;;;;;;8.60;99.90;;;;;;5025733;28;19921;-62
2024/01/30 11:20:58;;;;;;;;;;;8.60;99.90;;;;;;5025029;28;20273;-61
2024/01/30 11:23:23;;;;;;;;;;;8.70;99.90;;;;;;5025818;28;19989;-62
2024/01/30 11:25:49;;;;;;;;;;;8.70;99.90;;;;;;5025520;28;19921;-62
2024/01/30 11:28:16;;;;;;;;;;;8.80;99.90;;;;;;5021983;28;20008;-62
2024/01/30 11:30:41;;;;;;;;;;;8.80;99.90;;;;;;5040360;28;19921;-62
2024/01/30 11:33:08;;;;;;;;;;;8.80;99.90;;;;;;5025501;28;19909;-62
2024/01/30 11:35:44;;;;;;;;;;;8.90;99.90;;;;;;5007394;28;20144;-62
2024/01/30 11:38:10;;;;;;;;;;;8.90;99.90;;;;;;5025553;28;19917;-61
2024/01/30 11:40:37;;;;;;;;;;;8.90;99.90;;;;;;5025345;28;19913;-62
2024/01/30 11:43:04;;;;;;;;;;;9.00;99.90;;;;;;5025094;28;19913;-62
2024/01/30 11:45:30;;;;;;;;;;;9.00;99.90;;;;;;5025297;28;19909;-62
2024/01/30 11:47:56;;;;;;;;;;;9.10;99.90;;;;;;5025437;28;19948;-61
2024/01/30 11:50:23;;;;;;;;;;;9.10;99.90;;;;;;5025161;28;19917;-62
2024/01/30 11:52:48;;;;;;;;;;;9.10;99.90;;;;;;5025112;28;19917;-61
2024/01/30 11:55:14;;;;;;;;;;;9.20;99.90;;;;;;5025457;28;19920;-62
2024/01/30 11:57:40;;;;;;;;;;;9.20;99.90;;;;;;5008023;28;20369;-61
2024/01/30 12:00:10;;;;;;;;;;;9.20;99.90;;;;;;5030232;28;19948;-61
2024/01/30 12:02:36;;;;;;;;;;;9.20;99.90;;;;;;5025253;28;20056;-62
2024/01/30 12:05:09;;;;;;;;;;;9.20;99.90;;;;;;5024887;28;19925;-62
2024/01/30 12:07:34;;;;;;;;;;;9.20;99.90;;;;;;5025299;28;19999;-61
2024/01/30 12:10:00;;;;;;;;;;;9.20;99.90;;;;;;5024857;28;20441;-62
2024/01/30 12:12:27;;;;;;;;;;;9.30;99.90;;;;;;5024834;28;19919;-61
2024/01/30 12:14:52;;;;;;;;;;;9.30;99.90;;;;;;5024769;28;19944;-62
2024/01/30 12:17:24;;;;;;;;;;;9.30;99.90;;;;;;5024955;28;19956;-62
2024/01/30 12:19:50;;;;;;;;;;;9.30;99.90;;;;;;5024821;28;19969;-61
2024/01/30 12:22:15;;;;;;;;;;;9.30;99.90;;;;;;5039571;28;19956;-61
2024/01/30 12:24:41;;;;;;;;;;;9.30;99.90;;;;;;5025041;28;19909;-61
2024/01/30 12:27:06;;;;;;;;;;;9.40;99.90;;;;;;5020566;28;20266;-61
2024/01/30 12:29:32;;;;;;;;;;;9.30;99.90;;;;;;5024787;28;19921;-61
2024/01/30 12:31:59;;;;;;;;;;;9.40;99.90;;;;;;5024149;28;19925;-61
2024/01/30 12:34:25;;;;;;;;;;;9.40;99.90;;;;;;5024707;28;19937;-62
2024/01/30 12:36:50;;;;;;;;;;;9.40;99.90;;;;;;5023651;28;19997;-61
2024/01/30 12:39:16;;;;;;;;;;;9.40;99.90;;;;;;5017938;28;19909;-62
2024/01/30 12:41:42;;;;;;;;;;;9.40;99.90;;;;;;5024700;28;20239;-62
2024/01/30 12:44:07;;;;;;;;;;;9.30;99.90;;;;;;5006986;28;19913;-62
2024/01/30 12:46:36;;;;;;;;;;;9.40;99.90;;;;;;5024486;28;19920;-61
2024/01/30 12:49:01;;;;;;;;;;;9.40;99.90;;;;;;5024611;28;19917;-61
2024/01/30 12:51:27;;;;;;;;;;;9.40;99.90;;;;;;5023801;28;19917;-62
2024/01/30 12:53:53;;;;;;;;;;;9.40;99.90;;;;;;5024464;28;20558;-61
2024/01/30 12:56:18;;;;;;;;;;;9.40;99.90;;;;;;5039648;28;19945;-62
2024/01/30 12:58:44;;;;;;;;;;;9.40;99.90;;;;;;5024407;28;19973;-61
2024/01/30 13:01:09;;;;;;;;;;;9.40;99.90;;;;;;5024028;28;19949;-61
2024/01/30 13:03:35;;;;;;;;;;;9.40;99.90;;;;;;5024591;28;20385;-62
2024/01/30 13:06:01;;;;;;;;;;;9.40;99.90;;;;;;5024205;28;20285;-61
2024/01/30 13:08:26;;;;;;;;;;;9.40;99.90;;;;;;5024312;28;19909;-62
2024/01/30 13:10:52;;;;;;;;;;;9.40;99.90;;;;;;5037503;28;19909;-61
2024/01/30 13:13:18;;;;;;;;;;;9.50;99.90;;;;;;5024464;28;20342;-61
2024/01/30 13:15:43;;;;;;;;;;;9.50;99.90;;;;;;5023709;28;19913;-61
2024/01/30 13:18:10;;;;;;;;;;;9.40;99.90;;;;;;5024243;28;19917;-61
2024/01/30 13:20:35;;;;;;;;;;;9.40;99.90;;;;;;5023803;28;19909;-61
2024/01/30 13:23:01;;;;;;;;;;;9.50;99.90;;;;;;5023388;28;19920;-61
2024/01/30 13:25:26;;;;;;;;;;;9.40;99.90;;;;;;5023959;28;19917;-62
2024/01/30 13:27:52;;;;;;;;;;;9.50;99.90;;;;;;5019322;28;19934;-61
2024/01/30 13:30:17;;;;;;;;;;;9.40;99.90;;;;;;5023219;28;19925;-61
2024/01/30 13:32:50;;;;;;;;;;;9.40;99.90;;;;;;5123571;27;19911;-62
2024/01/30 13:35:15;;;;;;;;;;;9.40;99.90;;;;;;5119452;27;19961;-62
2024/01/30 13:37:42;;;;;;;;;;;9.40;99.90;;;;;;5110770;27;19992;-62
2024/01/30 13:40:08;;;;;;;;;;;9.40;99.90;;;;;;5111686;27;20019;-62
2024/01/30 13:42:34;;;;;;;;;;;9.40;99.90;;;;;;5110527;28;19911;-62
2024/01/30 13:44:59;;;;;;;;;;;9.40;99.90;;;;;;5112631;27;19977;-62
2024/01/30 13:47:25;;;;;;;;;;;9.40;99.90;;;;;;5109063;27;19959;-62
2024/01/30 13:49:52;;;;;;;;;;;9.40;99.90;;;;;;5113816;27;19920;-62
2024/01/30 13:52:18;;;;;;;;;;;9.40;99.90;;;;;;5139372;27;20066;-62
2024/01/30 13:54:44;;;;;;;;;;;9.40;99.90;;;;;;5099689;28;20011;-62
2024/01/30 13:57:10;;;;;;;;;;;9.40;99.90;;;;;;5115254;27;20613;-62
2024/01/30 13:59:35;;;;;;;;;;;9.40;99.90;;;;;;5114880;27;19912;-62
2024/01/30 14:02:01;;;;;;;;;;;9.40;99.90;;;;;;5111617;28;19912;-62
2024/01/30 14:04:26;;;;;;;;;;;9.40;99.90;;;;;;5111279;27;19943;-62
2024/01/30 14:06:52;;;;;;;;;;;9.40;99.90;;;;;;5103948;28;19912;-62
2024/01/30 14:09:17;;;;;;;;;;;9.40;99.90;;;;;;5107857;28;19919;-62
2024/01/30 14:11:43;;;;;;;;;;;9.40;99.90;;;;;;5108739;27;19915;-62
2024/01/30 14:14:08;;;;;;;;;;;9.40;99.90;;;;;;5107052;28;20329;-62
2024/01/30 14:16:34;;;;;;;;;;;9.40;99.90;;;;;;5107813;28;20017;-62
2024/01/30 14:18:59;;;;;;;;;;;9.40;99.90;;;;;;5107792;28;19908;-62
2024/01/30 14:21:25;;;;;;;;;;;9.40;99.90;;;;;;5101889;28;20301;-62
2024/01/30 14:23:50;;;;;;;;;;;9.40;99.90;;;;;;5095050;27;19912;-62